sensor_id;sensor_type;location;lat;lon;timestamp;P1;durP1;ratioP1;P2;durP2;ratioP2
12675;SDS011;63820;65.654;21.944;2022-12-31T00:00:53;1.47;;;0.90;;
12675;SDS011;63820;65.654;21.944;2022-12-31T00:03:37;1.30;;;0.93;;
12675;SDS011;63820;65.654;21.944;2022-12-31T00:06:29;1.80;;;1.10;;
12675;SDS011;63820;65.654;21.944;2022-12-31T00:09:15;1.03;;;0.93;;
12675;SDS011;63820;65.654;21.944;2022-12-31T00:11:59;1.87;;;0.80;;
12675;SDS011;63820;65.654;21.944;2022-12-31T00:14:43;2.37;;;1.10;;
12675;SDS011;63820;65.654;21.944;2022-12-31T00:17:28;1.33;;;0.90;;
12675;SDS011;63820;65.654;21.944;2022-12-31T00:20:12;1.63;;;0.90;;
12675;SDS011;63820;65.654;21.944;2022-12-31T00:22:57;1.33;;;1.10;;
12675;SDS011;63820;65.654;21.944;2022-12-31T00:25:42;1.83;;;1.23;;
12675;SDS011;63820;65.654;21.944;2022-12-31T00:28:26;1.60;;;1.20;;
12675;SDS011;63820;65.654;21.944;2022-12-31T00:31:13;1.37;;;1.00;;
12675;SDS011;63820;65.654;21.944;2022-12-31T00:33:58;2.07;;;1.30;;
12675;SDS011;63820;65.654;21.944;2022-12-31T00:36:43;1.53;;;1.23;;
12675;SDS011;63820;65.654;21.944;2022-12-31T00:39:29;2.13;;;1.30;;
12675;SDS011;63820;65.654;21.944;2022-12-31T00:42:13;1.50;;;1.20;;
12675;SDS011;63820;65.654;21.944;2022-12-31T00:44:57;2.37;;;1.53;;
12675;SDS011;63820;65.654;21.944;2022-12-31T00:47:41;2.17;;;1.50;;
12675;SDS011;63820;65.654;21.944;2022-12-31T00:50:25;3.00;;;1.83;;
12675;SDS011;63820;65.654;21.944;2022-12-31T00:53:09;2.00;;;1.50;;
12675;SDS011;63820;65.654;21.944;2022-12-31T00:56:07;5.00;;;1.97;;
12675;SDS011;63820;65.654;21.944;2022-12-31T00:58:54;1.97;;;1.50;;
12675;SDS011;63820;65.654;21.944;2022-12-31T01:01:40;4.10;;;1.67;;
12675;SDS011;63820;65.654;21.944;2022-12-31T01:04:25;2.40;;;1.60;;
12675;SDS011;63820;65.654;21.944;2022-12-31T01:07:09;3.33;;;2.00;;
12675;SDS011;63820;65.654;21.944;2022-12-31T01:09:53;2.77;;;1.50;;
12675;SDS011;63820;65.654;21.944;2022-12-31T01:12:37;1.60;;;1.30;;
12675;SDS011;63820;65.654;21.944;2022-12-31T01:15:22;2.33;;;1.53;;
12675;SDS011;63820;65.654;21.944;2022-12-31T01:18:06;3.17;;;1.80;;
12675;SDS011;63820;65.654;21.944;2022-12-31T01:20:51;4.50;;;2.20;;
12675;SDS011;63820;65.654;21.944;2022-12-31T01:23:36;2.20;;;1.60;;
12675;SDS011;63820;65.654;21.944;2022-12-31T01:26:20;7.60;;;1.97;;
12675;SDS011;63820;65.654;21.944;2022-12-31T01:29:05;6.00;;;3.53;;
12675;SDS011;63820;65.654;21.944;2022-12-31T01:31:50;5.13;;;1.43;;
12675;SDS011;63820;65.654;21.944;2022-12-31T01:34:34;3.33;;;1.27;;
12675;SDS011;63820;65.654;21.944;2022-12-31T01:37:19;2.30;;;1.23;;
12675;SDS011;63820;65.654;21.944;2022-12-31T01:40:03;1.60;;;1.37;;
12675;SDS011;63820;65.654;21.944;2022-12-31T01:42:54;1.60;;;1.03;;
12675;SDS011;63820;65.654;21.944;2022-12-31T01:45:40;3.03;;;1.30;;
12675;SDS011;63820;65.654;21.944;2022-12-31T01:48:25;2.87;;;1.40;;
12675;SDS011;63820;65.654;21.944;2022-12-31T01:51:10;2.90;;;1.90;;
12675;SDS011;63820;65.654;21.944;2022-12-31T01:53:55;3.10;;;2.30;;
12675;SDS011;63820;65.654;21.944;2022-12-31T01:56:41;4.20;;;2.63;;
12675;SDS011;63820;65.654;21.944;2022-12-31T01:59:28;3.67;;;2.87;;
12675;SDS011;63820;65.654;21.944;2022-12-31T02:02:13;4.40;;;2.70;;
12675;SDS011;63820;65.654;21.944;2022-12-31T02:04:59;6.47;;;2.53;;
12675;SDS011;63820;65.654;21.944;2022-12-31T02:07:48;9.17;;;2.60;;
12675;SDS011;63820;65.654;21.944;2022-12-31T02:10:34;9.10;;;3.70;;
12675;SDS011;63820;65.654;21.944;2022-12-31T02:13:18;9.37;;;4.23;;
12675;SDS011;63820;65.654;21.944;2022-12-31T02:16:08;22.83;;;5.73;;
12675;SDS011;63820;65.654;21.944;2022-12-31T02:19:14;18.50;;;5.40;;
12675;SDS011;63820;65.654;21.944;2022-12-31T02:25:22;14.13;;;3.90;;
12675;SDS011;63820;65.654;21.944;2022-12-31T02:36:54;0.70;;;0.60;;
12675;SDS011;63820;65.654;21.944;2022-12-31T02:39:42;1.00;;;0.60;;
12675;SDS011;63820;65.654;21.944;2022-12-31T02:42:27;0.93;;;0.50;;
12675;SDS011;63820;65.654;21.944;2022-12-31T02:45:12;0.70;;;0.50;;
12675;SDS011;63820;65.654;21.944;2022-12-31T02:54:35;0.60;;;0.40;;
12675;SDS011;63820;65.654;21.944;2022-12-31T02:57:31;4.00;;;0.60;;
12675;SDS011;63820;65.654;21.944;2022-12-31T03:00:30;0.63;;;0.40;;
12675;SDS011;63820;65.654;21.944;2022-12-31T03:03:35;3.73;;;0.60;;
12675;SDS011;63820;65.654;21.944;2022-12-31T03:06:21;1.97;;;0.57;;
12675;SDS011;63820;65.654;21.944;2022-12-31T03:09:05;0.83;;;0.33;;
12675;SDS011;63820;65.654;21.944;2022-12-31T03:11:55;1.63;;;0.43;;
12675;SDS011;63820;65.654;21.944;2022-12-31T03:14:58;0.60;;;0.40;;
12675;SDS011;63820;65.654;21.944;2022-12-31T03:17:43;1.83;;;0.53;;
12675;SDS011;63820;65.654;21.944;2022-12-31T03:20:38;1.63;;;0.47;;
12675;SDS011;63820;65.654;21.944;2022-12-31T03:23:42;1.07;;;0.47;;
12675;SDS011;63820;65.654;21.944;2022-12-31T03:26:47;0.80;;;0.50;;
12675;SDS011;63820;65.654;21.944;2022-12-31T03:29:31;1.30;;;1.07;;
12675;SDS011;63820;65.654;21.944;2022-12-31T03:32:15;0.60;;;0.60;;
12675;SDS011;63820;65.654;21.944;2022-12-31T03:35:00;2.53;;;0.77;;
12675;SDS011;63820;65.654;21.944;2022-12-31T03:37:43;2.37;;;0.77;;
12675;SDS011;63820;65.654;21.944;2022-12-31T03:40:28;3.67;;;1.13;;
12675;SDS011;63820;65.654;21.944;2022-12-31T03:43:13;2.43;;;0.97;;
12675;SDS011;63820;65.654;21.944;2022-12-31T03:45:58;2.07;;;0.90;;
12675;SDS011;63820;65.654;21.944;2022-12-31T03:48:44;3.97;;;1.27;;
12675;SDS011;63820;65.654;21.944;2022-12-31T03:51:28;5.43;;;1.40;;
12675;SDS011;63820;65.654;21.944;2022-12-31T03:54:12;2.23;;;0.90;;
12675;SDS011;63820;65.654;21.944;2022-12-31T03:56:56;3.00;;;1.00;;
12675;SDS011;63820;65.654;21.944;2022-12-31T03:59:40;5.83;;;1.33;;
12675;SDS011;63820;65.654;21.944;2022-12-31T04:02:25;14.80;;;1.77;;
12675;SDS011;63820;65.654;21.944;2022-12-31T04:05:10;2.83;;;1.00;;
12675;SDS011;63820;65.654;21.944;2022-12-31T04:07:54;4.23;;;1.50;;
12675;SDS011;63820;65.654;21.944;2022-12-31T04:10:39;18.63;;;3.03;;
12675;SDS011;63820;65.654;21.944;2022-12-31T04:13:23;7.00;;;1.83;;
12675;SDS011;63820;65.654;21.944;2022-12-31T04:16:07;22.43;;;2.87;;
12675;SDS011;63820;65.654;21.944;2022-12-31T04:18:51;8.23;;;2.30;;
12675;SDS011;63820;65.654;21.944;2022-12-31T04:21:35;19.43;;;2.90;;
12675;SDS011;63820;65.654;21.944;2022-12-31T04:24:20;26.43;;;3.50;;
12675;SDS011;63820;65.654;21.944;2022-12-31T04:27:04;18.93;;;3.43;;
12675;SDS011;63820;65.654;21.944;2022-12-31T04:29:48;12.17;;;2.97;;
12675;SDS011;63820;65.654;21.944;2022-12-31T04:32:32;6.93;;;2.10;;
12675;SDS011;63820;65.654;21.944;2022-12-31T04:35:17;4.77;;;2.27;;
12675;SDS011;63820;65.654;21.944;2022-12-31T04:38:01;7.17;;;2.63;;
12675;SDS011;63820;65.654;21.944;2022-12-31T04:40:44;5.77;;;2.23;;
12675;SDS011;63820;65.654;21.944;2022-12-31T04:46:33;4.50;;;2.13;;
12675;SDS011;63820;65.654;21.944;2022-12-31T04:49:18;7.07;;;2.40;;
12675;SDS011;63820;65.654;21.944;2022-12-31T04:52:02;6.53;;;2.23;;
12675;SDS011;63820;65.654;21.944;2022-12-31T04:54:46;5.40;;;2.37;;
12675;SDS011;63820;65.654;21.944;2022-12-31T04:57:30;6.40;;;2.70;;
12675;SDS011;63820;65.654;21.944;2022-12-31T05:00:14;5.77;;;2.33;;
12675;SDS011;63820;65.654;21.944;2022-12-31T05:02:59;4.30;;;2.40;;
12675;SDS011;63820;65.654;21.944;2022-12-31T05:05:43;7.17;;;2.53;;
12675;SDS011;63820;65.654;21.944;2022-12-31T05:08:28;6.43;;;2.70;;
12675;SDS011;63820;65.654;21.944;2022-12-31T05:11:12;8.37;;;2.97;;
12675;SDS011;63820;65.654;21.944;2022-12-31T05:13:57;6.03;;;2.47;;
12675;SDS011;63820;65.654;21.944;2022-12-31T05:16:41;6.67;;;2.80;;
12675;SDS011;63820;65.654;21.944;2022-12-31T05:19:26;5.47;;;2.50;;
12675;SDS011;63820;65.654;21.944;2022-12-31T05:22:10;7.60;;;2.40;;
12675;SDS011;63820;65.654;21.944;2022-12-31T05:25:12;4.13;;;2.40;;
12675;SDS011;63820;65.654;21.944;2022-12-31T05:27:57;8.63;;;2.97;;
12675;SDS011;63820;65.654;21.944;2022-12-31T05:30:41;6.53;;;2.77;;
12675;SDS011;63820;65.654;21.944;2022-12-31T05:33:26;9.73;;;2.67;;
12675;SDS011;63820;65.654;21.944;2022-12-31T05:36:10;7.20;;;2.67;;
12675;SDS011;63820;65.654;21.944;2022-12-31T05:38:54;8.93;;;3.10;;
12675;SDS011;63820;65.654;21.944;2022-12-31T05:41:39;5.87;;;2.37;;
12675;SDS011;63820;65.654;21.944;2022-12-31T05:44:23;6.63;;;2.50;;
12675;SDS011;63820;65.654;21.944;2022-12-31T05:47:07;7.07;;;2.30;;
12675;SDS011;63820;65.654;21.944;2022-12-31T05:49:51;7.83;;;2.37;;
12675;SDS011;63820;65.654;21.944;2022-12-31T05:52:35;6.03;;;2.80;;
12675;SDS011;63820;65.654;21.944;2022-12-31T05:55:19;8.37;;;2.23;;
12675;SDS011;63820;65.654;21.944;2022-12-31T05:58:04;6.10;;;2.47;;
12675;SDS011;63820;65.654;21.944;2022-12-31T06:00:48;11.50;;;3.07;;
12675;SDS011;63820;65.654;21.944;2022-12-31T06:03:31;9.90;;;3.00;;
12675;SDS011;63820;65.654;21.944;2022-12-31T06:06:16;8.17;;;3.00;;
12675;SDS011;63820;65.654;21.944;2022-12-31T06:09:00;9.03;;;2.90;;
12675;SDS011;63820;65.654;21.944;2022-12-31T06:11:45;8.27;;;2.50;;
12675;SDS011;63820;65.654;21.944;2022-12-31T06:14:29;11.43;;;2.63;;
12675;SDS011;63820;65.654;21.944;2022-12-31T06:17:14;12.30;;;2.50;;
12675;SDS011;63820;65.654;21.944;2022-12-31T06:19:58;10.03;;;2.80;;
12675;SDS011;63820;65.654;21.944;2022-12-31T06:22:42;6.50;;;2.43;;
12675;SDS011;63820;65.654;21.944;2022-12-31T06:25:26;7.00;;;2.67;;
12675;SDS011;63820;65.654;21.944;2022-12-31T06:28:10;8.00;;;2.70;;
12675;SDS011;63820;65.654;21.944;2022-12-31T06:31:01;5.43;;;2.30;;
12675;SDS011;63820;65.654;21.944;2022-12-31T06:33:46;9.07;;;3.10;;
12675;SDS011;63820;65.654;21.944;2022-12-31T06:36:31;7.70;;;2.87;;
12675;SDS011;63820;65.654;21.944;2022-12-31T06:39:15;7.53;;;2.83;;
12675;SDS011;63820;65.654;21.944;2022-12-31T06:41:59;4.30;;;2.30;;
12675;SDS011;63820;65.654;21.944;2022-12-31T06:44:44;6.73;;;2.43;;
12675;SDS011;63820;65.654;21.944;2022-12-31T06:47:28;5.87;;;2.60;;
12675;SDS011;63820;65.654;21.944;2022-12-31T06:50:12;9.00;;;3.63;;
12675;SDS011;63820;65.654;21.944;2022-12-31T06:52:56;8.07;;;3.20;;
12675;SDS011;63820;65.654;21.944;2022-12-31T06:55:40;8.97;;;3.30;;
12675;SDS011;63820;65.654;21.944;2022-12-31T06:58:25;9.83;;;3.13;;
12675;SDS011;63820;65.654;21.944;2022-12-31T07:19:23;9.10;;;3.07;;
12675;SDS011;63820;65.654;21.944;2022-12-31T07:22:20;8.67;;;3.77;;
12675;SDS011;63820;65.654;21.944;2022-12-31T07:25:04;9.33;;;3.47;;
12675;SDS011;63820;65.654;21.944;2022-12-31T07:40:10;4.80;;;2.77;;
12675;SDS011;63820;65.654;21.944;2022-12-31T07:46:37;5.90;;;2.70;;
12675;SDS011;63820;65.654;21.944;2022-12-31T07:49:37;6.53;;;3.00;;
12675;SDS011;63820;65.654;21.944;2022-12-31T07:52:25;6.53;;;2.70;;
12675;SDS011;63820;65.654;21.944;2022-12-31T07:55:09;8.43;;;2.60;;
12675;SDS011;63820;65.654;21.944;2022-12-31T07:57:59;4.80;;;2.17;;
12675;SDS011;63820;65.654;21.944;2022-12-31T08:00:49;4.77;;;2.50;;
12675;SDS011;63820;65.654;21.944;2022-12-31T08:06:49;7.43;;;2.63;;
12675;SDS011;63820;65.654;21.944;2022-12-31T08:12:39;5.47;;;2.30;;
12675;SDS011;63820;65.654;21.944;2022-12-31T08:15:24;5.10;;;2.30;;
12675;SDS011;63820;65.654;21.944;2022-12-31T08:18:08;6.40;;;3.00;;
12675;SDS011;63820;65.654;21.944;2022-12-31T08:27:04;5.30;;;2.63;;
12675;SDS011;63820;65.654;21.944;2022-12-31T08:39:06;5.63;;;2.57;;
12675;SDS011;63820;65.654;21.944;2022-12-31T08:42:02;4.17;;;2.70;;
12675;SDS011;63820;65.654;21.944;2022-12-31T08:48:13;4.10;;;2.17;;
12675;SDS011;63820;65.654;21.944;2022-12-31T08:51:02;3.10;;;2.23;;
12675;SDS011;63820;65.654;21.944;2022-12-31T08:53:47;5.10;;;2.27;;
12675;SDS011;63820;65.654;21.944;2022-12-31T08:56:50;4.40;;;2.43;;
12675;SDS011;63820;65.654;21.944;2022-12-31T09:00:01;6.13;;;2.67;;
12675;SDS011;63820;65.654;21.944;2022-12-31T09:02:59;4.63;;;2.43;;
12675;SDS011;63820;65.654;21.944;2022-12-31T09:15:13;3.97;;;1.83;;
12675;SDS011;63820;65.654;21.944;2022-12-31T09:18:04;6.03;;;1.83;;
12675;SDS011;63820;65.654;21.944;2022-12-31T09:20:48;3.27;;;1.97;;
12675;SDS011;63820;65.654;21.944;2022-12-31T09:23:33;4.20;;;1.57;;
12675;SDS011;63820;65.654;21.944;2022-12-31T10:00:11;4.33;;;1.40;;
12675;SDS011;63820;65.654;21.944;2022-12-31T10:09:08;1.20;;;0.90;;
12675;SDS011;63820;65.654;21.944;2022-12-31T10:12:05;4.90;;;1.10;;
12675;SDS011;63820;65.654;21.944;2022-12-31T10:15:29;1.93;;;1.37;;
12675;SDS011;63820;65.654;21.944;2022-12-31T10:30:56;4.23;;;1.13;;
12675;SDS011;63820;65.654;21.944;2022-12-31T10:36:57;2.03;;;0.90;;
12675;SDS011;63820;65.654;21.944;2022-12-31T10:39:52;1.63;;;0.93;;
12675;SDS011;63820;65.654;21.944;2022-12-31T10:43:01;1.63;;;0.97;;
12675;SDS011;63820;65.654;21.944;2022-12-31T10:49:24;2.43;;;1.00;;
12675;SDS011;63820;65.654;21.944;2022-12-31T11:01:32;4.00;;;1.00;;
12675;SDS011;63820;65.654;21.944;2022-12-31T11:08:01;1.23;;;0.70;;
12675;SDS011;63820;65.654;21.944;2022-12-31T11:17:15;1.40;;;0.70;;
12675;SDS011;63820;65.654;21.944;2022-12-31T11:20:21;1.47;;;0.53;;
12675;SDS011;63820;65.654;21.944;2022-12-31T11:29:23;1.53;;;0.80;;
12675;SDS011;63820;65.654;21.944;2022-12-31T11:39:12;1.23;;;0.80;;
12675;SDS011;63820;65.654;21.944;2022-12-31T11:41:41;0.70;;;0.60;;
12675;SDS011;63820;65.654;21.944;2022-12-31T11:44:31;0.70;;;0.60;;
12675;SDS011;63820;65.654;21.944;2022-12-31T11:47:46;1.63;;;0.67;;
12675;SDS011;63820;65.654;21.944;2022-12-31T11:57:23;1.00;;;0.60;;
12675;SDS011;63820;65.654;21.944;2022-12-31T12:03:00;0.90;;;0.40;;
12675;SDS011;63820;65.654;21.944;2022-12-31T12:05:47;2.10;;;0.47;;
12675;SDS011;63820;65.654;21.944;2022-12-31T12:08:32;1.40;;;0.60;;
12675;SDS011;63820;65.654;21.944;2022-12-31T12:11:19;0.73;;;0.33;;
12675;SDS011;63820;65.654;21.944;2022-12-31T12:14:19;0.30;;;0.30;;
12675;SDS011;63820;65.654;21.944;2022-12-31T12:17:14;0.37;;;0.37;;
12675;SDS011;63820;65.654;21.944;2022-12-31T12:20:17;1.73;;;0.60;;
12675;SDS011;63820;65.654;21.944;2022-12-31T12:23:15;1.40;;;0.50;;
12675;SDS011;63820;65.654;21.944;2022-12-31T12:26:05;1.20;;;0.50;;
12675;SDS011;63820;65.654;21.944;2022-12-31T12:28:49;0.70;;;0.60;;
12675;SDS011;63820;65.654;21.944;2022-12-31T12:31:33;0.50;;;0.50;;
12675;SDS011;63820;65.654;21.944;2022-12-31T12:34:26;0.57;;;0.40;;
12675;SDS011;63820;65.654;21.944;2022-12-31T12:37:37;0.47;;;0.40;;
12675;SDS011;63820;65.654;21.944;2022-12-31T12:40:21;0.87;;;0.50;;
12675;SDS011;63820;65.654;21.944;2022-12-31T12:43:23;0.60;;;0.40;;
12675;SDS011;63820;65.654;21.944;2022-12-31T12:46:18;0.40;;;0.40;;
12675;SDS011;63820;65.654;21.944;2022-12-31T12:49:05;0.83;;;0.40;;
12675;SDS011;63820;65.654;21.944;2022-12-31T12:55:26;0.60;;;0.50;;
12675;SDS011;63820;65.654;21.944;2022-12-31T13:01:33;0.80;;;0.40;;
12675;SDS011;63820;65.654;21.944;2022-12-31T13:14:28;0.47;;;0.47;;
12675;SDS011;63820;65.654;21.944;2022-12-31T13:17:18;0.30;;;0.30;;
12675;SDS011;63820;65.654;21.944;2022-12-31T13:20:26;1.03;;;0.50;;
12675;SDS011;63820;65.654;21.944;2022-12-31T13:29:07;1.57;;;0.50;;
12675;SDS011;63820;65.654;21.944;2022-12-31T13:31:59;0.50;;;0.50;;
12675;SDS011;63820;65.654;21.944;2022-12-31T13:34:48;0.60;;;0.50;;
12675;SDS011;63820;65.654;21.944;2022-12-31T13:37:39;1.63;;;0.60;;
12675;SDS011;63820;65.654;21.944;2022-12-31T13:40:26;1.30;;;1.00;;
12675;SDS011;63820;65.654;21.944;2022-12-31T13:46:44;1.07;;;0.70;;
12675;SDS011;63820;65.654;21.944;2022-12-31T13:49:41;1.70;;;0.70;;
12675;SDS011;63820;65.654;21.944;2022-12-31T13:52:31;2.47;;;1.10;;
12675;SDS011;63820;65.654;21.944;2022-12-31T13:55:35;2.20;;;0.70;;
12675;SDS011;63820;65.654;21.944;2022-12-31T13:58:30;2.97;;;1.20;;
12675;SDS011;63820;65.654;21.944;2022-12-31T14:01:41;1.07;;;0.70;;
12675;SDS011;63820;65.654;21.944;2022-12-31T14:04:53;3.30;;;1.00;;
12675;SDS011;63820;65.654;21.944;2022-12-31T14:07:51;1.80;;;0.70;;
12675;SDS011;63820;65.654;21.944;2022-12-31T14:28:03;2.87;;;0.83;;
12675;SDS011;63820;65.654;21.944;2022-12-31T14:30:51;1.37;;;0.80;;
12675;SDS011;63820;65.654;21.944;2022-12-31T14:33:54;1.40;;;0.73;;
12675;SDS011;63820;65.654;21.944;2022-12-31T14:36:55;1.10;;;0.63;;
12675;SDS011;63820;65.654;21.944;2022-12-31T14:39:51;1.80;;;0.67;;
12675;SDS011;63820;65.654;21.944;2022-12-31T14:48:58;1.07;;;0.70;;
12675;SDS011;63820;65.654;21.944;2022-12-31T14:51:45;2.27;;;1.40;;
12675;SDS011;63820;65.654;21.944;2022-12-31T14:54:33;3.37;;;1.17;;
12675;SDS011;63820;65.654;21.944;2022-12-31T14:57:23;2.40;;;1.13;;
12675;SDS011;63820;65.654;21.944;2022-12-31T15:06:50;4.03;;;2.10;;
12675;SDS011;63820;65.654;21.944;2022-12-31T15:22:02;6.80;;;1.93;;
12675;SDS011;63820;65.654;21.944;2022-12-31T15:24:58;3.07;;;1.77;;
12675;SDS011;63820;65.654;21.944;2022-12-31T15:27:44;5.67;;;3.00;;
12675;SDS011;63820;65.654;21.944;2022-12-31T15:30:37;5.87;;;1.80;;
12675;SDS011;63820;65.654;21.944;2022-12-31T15:33:52;2.30;;;1.30;;
12675;SDS011;63820;65.654;21.944;2022-12-31T15:36:49;3.43;;;1.40;;
12675;SDS011;63820;65.654;21.944;2022-12-31T15:39:37;4.20;;;1.53;;
12675;SDS011;63820;65.654;21.944;2022-12-31T15:42:37;4.67;;;1.40;;
12675;SDS011;63820;65.654;21.944;2022-12-31T15:45:31;5.67;;;1.70;;
12675;SDS011;63820;65.654;21.944;2022-12-31T15:52:02;2.87;;;1.43;;
12675;SDS011;63820;65.654;21.944;2022-12-31T15:54:47;5.80;;;1.90;;
12675;SDS011;63820;65.654;21.944;2022-12-31T15:57:38;4.47;;;1.83;;
12675;SDS011;63820;65.654;21.944;2022-12-31T16:00:23;4.67;;;2.10;;
12675;SDS011;63820;65.654;21.944;2022-12-31T16:03:17;3.70;;;2.10;;
12675;SDS011;63820;65.654;21.944;2022-12-31T16:06:13;4.27;;;1.80;;
12675;SDS011;63820;65.654;21.944;2022-12-31T16:08:58;4.13;;;1.80;;
12675;SDS011;63820;65.654;21.944;2022-12-31T16:11:43;5.67;;;2.23;;
12675;SDS011;63820;65.654;21.944;2022-12-31T16:14:35;4.50;;;1.80;;
12675;SDS011;63820;65.654;21.944;2022-12-31T16:17:33;5.73;;;2.07;;
12675;SDS011;63820;65.654;21.944;2022-12-31T16:20:26;6.57;;;2.00;;
12675;SDS011;63820;65.654;21.944;2022-12-31T16:23:24;5.07;;;1.87;;
12675;SDS011;63820;65.654;21.944;2022-12-31T16:26:10;3.67;;;1.90;;
12675;SDS011;63820;65.654;21.944;2022-12-31T16:28:55;6.37;;;1.97;;
12675;SDS011;63820;65.654;21.944;2022-12-31T16:31:43;3.20;;;2.07;;
12675;SDS011;63820;65.654;21.944;2022-12-31T16:34:34;4.43;;;1.70;;
12675;SDS011;63820;65.654;21.944;2022-12-31T16:37:21;5.67;;;1.77;;
12675;SDS011;63820;65.654;21.944;2022-12-31T16:40:08;7.20;;;1.77;;
12675;SDS011;63820;65.654;21.944;2022-12-31T16:43:21;1.77;;;1.30;;
12675;SDS011;63820;65.654;21.944;2022-12-31T16:46:18;2.73;;;1.57;;
12675;SDS011;63820;65.654;21.944;2022-12-31T16:49:07;2.87;;;1.30;;
12675;SDS011;63820;65.654;21.944;2022-12-31T16:52:03;4.53;;;1.40;;
12675;SDS011;63820;65.654;21.944;2022-12-31T16:54:50;2.77;;;1.30;;
12675;SDS011;63820;65.654;21.944;2022-12-31T16:57:35;4.30;;;1.43;;
12675;SDS011;63820;65.654;21.944;2022-12-31T17:00:20;3.37;;;1.60;;
12675;SDS011;63820;65.654;21.944;2022-12-31T17:03:12;3.47;;;1.80;;
12675;SDS011;63820;65.654;21.944;2022-12-31T17:14:46;4.03;;;1.63;;
12675;SDS011;63820;65.654;21.944;2022-12-31T17:17:33;5.60;;;1.70;;
12675;SDS011;63820;65.654;21.944;2022-12-31T17:20:22;2.63;;;1.60;;
12675;SDS011;63820;65.654;21.944;2022-12-31T17:23:10;6.03;;;1.47;;
12675;SDS011;63820;65.654;21.944;2022-12-31T17:28:54;2.80;;;1.30;;
12675;SDS011;63820;65.654;21.944;2022-12-31T17:31:40;4.57;;;1.37;;
12675;SDS011;63820;65.654;21.944;2022-12-31T17:34:49;3.10;;;1.40;;
12675;SDS011;63820;65.654;21.944;2022-12-31T17:37:33;2.37;;;1.43;;
12675;SDS011;63820;65.654;21.944;2022-12-31T17:40:34;5.53;;;1.50;;
12675;SDS011;63820;65.654;21.944;2022-12-31T17:43:20;1.93;;;1.10;;
12675;SDS011;63820;65.654;21.944;2022-12-31T17:46:15;3.47;;;1.70;;
12675;SDS011;63820;65.654;21.944;2022-12-31T17:49:00;2.17;;;1.37;;
12675;SDS011;63820;65.654;21.944;2022-12-31T17:51:45;3.30;;;1.80;;
12675;SDS011;63820;65.654;21.944;2022-12-31T17:54:29;2.40;;;1.50;;
12675;SDS011;63820;65.654;21.944;2022-12-31T17:57:17;3.37;;;1.70;;
12675;SDS011;63820;65.654;21.944;2022-12-31T18:00:09;3.20;;;1.80;;
12675;SDS011;63820;65.654;21.944;2022-12-31T18:03:00;3.80;;;1.47;;
12675;SDS011;63820;65.654;21.944;2022-12-31T18:05:44;3.17;;;2.03;;
12675;SDS011;63820;65.654;21.944;2022-12-31T18:08:28;6.40;;;2.90;;
12675;SDS011;63820;65.654;21.944;2022-12-31T18:11:16;4.37;;;2.93;;
12675;SDS011;63820;65.654;21.944;2022-12-31T18:14:05;3.93;;;2.13;;
12675;SDS011;63820;65.654;21.944;2022-12-31T18:16:49;9.17;;;6.03;;
12675;SDS011;63820;65.654;21.944;2022-12-31T18:19:34;9.80;;;6.40;;
12675;SDS011;63820;65.654;21.944;2022-12-31T18:22:18;3.40;;;2.30;;
12675;SDS011;63820;65.654;21.944;2022-12-31T18:25:04;8.17;;;4.20;;
12675;SDS011;63820;65.654;21.944;2022-12-31T18:27:50;11.17;;;7.60;;
12675;SDS011;63820;65.654;21.944;2022-12-31T18:30:34;5.60;;;3.87;;
12675;SDS011;63820;65.654;21.944;2022-12-31T18:33:19;6.07;;;4.07;;
12675;SDS011;63820;65.654;21.944;2022-12-31T18:36:11;11.23;;;4.00;;
12675;SDS011;63820;65.654;21.944;2022-12-31T18:38:56;4.43;;;2.33;;
12675;SDS011;63820;65.654;21.944;2022-12-31T18:41:41;3.27;;;2.13;;
12675;SDS011;63820;65.654;21.944;2022-12-31T18:44:34;4.30;;;2.27;;
12675;SDS011;63820;65.654;21.944;2022-12-31T18:47:18;5.27;;;2.27;;
12675;SDS011;63820;65.654;21.944;2022-12-31T18:50:06;3.20;;;2.50;;
12675;SDS011;63820;65.654;21.944;2022-12-31T18:52:50;2.90;;;2.57;;
12675;SDS011;63820;65.654;21.944;2022-12-31T18:55:38;4.63;;;2.73;;
12675;SDS011;63820;65.654;21.944;2022-12-31T18:58:24;6.00;;;3.13;;
12675;SDS011;63820;65.654;21.944;2022-12-31T19:04:16;4.60;;;3.20;;
12675;SDS011;63820;65.654;21.944;2022-12-31T19:07:02;4.40;;;3.20;;
12675;SDS011;63820;65.654;21.944;2022-12-31T19:09:47;12.00;;;6.50;;
12675;SDS011;63820;65.654;21.944;2022-12-31T19:12:30;5.33;;;3.63;;
12675;SDS011;63820;65.654;21.944;2022-12-31T19:18:08;6.00;;;3.73;;
12675;SDS011;63820;65.654;21.944;2022-12-31T19:20:52;7.30;;;3.87;;
12675;SDS011;63820;65.654;21.944;2022-12-31T19:23:36;5.40;;;3.37;;
12675;SDS011;63820;65.654;21.944;2022-12-31T19:26:21;6.20;;;3.53;;
12675;SDS011;63820;65.654;21.944;2022-12-31T19:29:05;14.00;;;11.10;;
12675;SDS011;63820;65.654;21.944;2022-12-31T19:31:52;12.40;;;10.63;;
12675;SDS011;63820;65.654;21.944;2022-12-31T19:34:37;4.20;;;2.90;;
12675;SDS011;63820;65.654;21.944;2022-12-31T19:37:21;8.93;;;6.20;;
12675;SDS011;63820;65.654;21.944;2022-12-31T19:40:06;4.37;;;3.40;;
12675;SDS011;63820;65.654;21.944;2022-12-31T19:42:55;5.90;;;4.53;;
12675;SDS011;63820;65.654;21.944;2022-12-31T19:45:40;3.03;;;2.47;;
12675;SDS011;63820;65.654;21.944;2022-12-31T19:48:25;4.23;;;2.27;;
12675;SDS011;63820;65.654;21.944;2022-12-31T19:51:11;3.53;;;2.27;;
12675;SDS011;63820;65.654;21.944;2022-12-31T19:53:59;6.60;;;5.80;;
12675;SDS011;63820;65.654;21.944;2022-12-31T19:56:43;3.80;;;2.37;;
12675;SDS011;63820;65.654;21.944;2022-12-31T19:59:27;3.53;;;2.87;;
12675;SDS011;63820;65.654;21.944;2022-12-31T20:02:11;3.23;;;2.73;;
12675;SDS011;63820;65.654;21.944;2022-12-31T20:04:56;3.13;;;2.43;;
12675;SDS011;63820;65.654;21.944;2022-12-31T20:07:40;3.33;;;2.03;;
12675;SDS011;63820;65.654;21.944;2022-12-31T20:10:25;2.53;;;1.80;;
12675;SDS011;63820;65.654;21.944;2022-12-31T20:13:09;3.47;;;3.17;;
12675;SDS011;63820;65.654;21.944;2022-12-31T20:15:53;5.80;;;5.23;;
12675;SDS011;63820;65.654;21.944;2022-12-31T20:18:37;11.07;;;9.23;;
12675;SDS011;63820;65.654;21.944;2022-12-31T20:21:24;6.10;;;4.07;;
12675;SDS011;63820;65.654;21.944;2022-12-31T20:24:10;6.53;;;4.27;;
12675;SDS011;63820;65.654;21.944;2022-12-31T20:26:54;7.07;;;5.87;;
12675;SDS011;63820;65.654;21.944;2022-12-31T20:29:39;2.57;;;2.13;;
12675;SDS011;63820;65.654;21.944;2022-12-31T20:32:23;2.63;;;2.10;;
12675;SDS011;63820;65.654;21.944;2022-12-31T20:35:08;2.27;;;1.80;;
12675;SDS011;63820;65.654;21.944;2022-12-31T20:37:52;2.93;;;1.83;;
12675;SDS011;63820;65.654;21.944;2022-12-31T20:40:36;4.40;;;2.03;;
12675;SDS011;63820;65.654;21.944;2022-12-31T20:43:20;2.10;;;1.90;;
12675;SDS011;63820;65.654;21.944;2022-12-31T20:46:08;1.50;;;1.40;;
12675;SDS011;63820;65.654;21.944;2022-12-31T20:48:55;1.37;;;1.27;;
12675;SDS011;63820;65.654;21.944;2022-12-31T20:51:41;1.50;;;1.30;;
12675;SDS011;63820;65.654;21.944;2022-12-31T20:54:25;1.63;;;0.80;;
12675;SDS011;63820;65.654;21.944;2022-12-31T20:57:10;0.77;;;0.67;;
12675;SDS011;63820;65.654;21.944;2022-12-31T20:59:54;1.03;;;0.80;;
12675;SDS011;63820;65.654;21.944;2022-12-31T21:02:38;1.23;;;0.80;;
12675;SDS011;63820;65.654;21.944;2022-12-31T21:05:22;0.77;;;0.77;;
12675;SDS011;63820;65.654;21.944;2022-12-31T21:08:06;0.70;;;0.70;;
12675;SDS011;63820;65.654;21.944;2022-12-31T21:10:51;0.83;;;0.67;;
12675;SDS011;63820;65.654;21.944;2022-12-31T21:13:35;0.60;;;0.60;;
12675;SDS011;63820;65.654;21.944;2022-12-31T21:16:19;0.70;;;0.60;;
12675;SDS011;63820;65.654;21.944;2022-12-31T21:19:04;0.40;;;0.40;;